Terminal Aerodrome Forecast
Issued by NWS

Home | Current Version | Previous Version | Text Only | Print | Product List | Glossary Off
Versions: 1 2 3 4 5 6 7 8 9 10 11 12 13 14 15 16 17 18 19 20 21 22 23 24 25 26 27 28 29 30 31 32

000
FTUS45 KGGW 221700
TAFGDV
TAF
KGDV 221727Z 2218/2318 05009KT P6SM VCSH BKN010 BKN025
     FM222000 05011KT P6SM VCSH BKN025
     FM230800 05018KT 2SM +RA SCT015 OVC025
      AMD LTD TO CLD VIS AND WIND=

USA.gov is the U.S. government's official web portal to all federal, state and local government web resources and services.